sensor_id;sensor_type;location;lat;lon;timestamp;pressure;altitude;pressure_sealevel;temperature;humidity
25238;BME280;13185;50.872;5.306;2023-07-13T00:02:15;101199.41;;;16.79;69.70
25238;BME280;13185;50.872;5.306;2023-07-13T00:04:41;101203.19;;;16.77;69.77
25238;BME280;13185;50.872;5.306;2023-07-13T00:07:07;101198.19;;;16.72;69.93
25238;BME280;13185;50.872;5.306;2023-07-13T00:09:33;101195.75;;;16.69;70.02
25238;BME280;13185;50.872;5.306;2023-07-13T00:11:59;101185.03;;;16.67;70.53
25238;BME280;13185;50.872;5.306;2023-07-13T00:14:26;101196.81;;;16.66;70.51
25238;BME280;13185;50.872;5.306;2023-07-13T00:16:52;101197.22;;;16.62;70.85
25238;BME280;13185;50.872;5.306;2023-07-13T00:19:18;101201.78;;;16.61;70.56
25238;BME280;13185;50.872;5.306;2023-07-13T00:21:44;101189.38;;;16.59;71.02
25238;BME280;13185;50.872;5.306;2023-07-13T00:24:12;101195.16;;;16.54;70.83
25238;BME280;13185;50.872;5.306;2023-07-13T00:26:39;101189.75;;;16.54;71.07
25238;BME280;13185;50.872;5.306;2023-07-13T00:29:05;101189.88;;;16.53;71.26
25238;BME280;13185;50.872;5.306;2023-07-13T00:31:34;101191.00;;;16.50;71.54
25238;BME280;13185;50.872;5.306;2023-07-13T00:33:59;101204.66;;;16.49;71.61
25238;BME280;13185;50.872;5.306;2023-07-13T00:36:25;101210.94;;;16.49;71.80
25238;BME280;13185;50.872;5.306;2023-07-13T00:38:52;101199.97;;;16.51;71.97
25238;BME280;13185;50.872;5.306;2023-07-13T00:41:18;101203.53;;;16.51;72.21
25238;BME280;13185;50.872;5.306;2023-07-13T00:43:44;101202.97;;;16.48;72.55
25238;BME280;13185;50.872;5.306;2023-07-13T00:46:20;101200.34;;;16.46;72.73
25238;BME280;13185;50.872;5.306;2023-07-13T00:48:48;101195.94;;;16.45;73.02
25238;BME280;13185;50.872;5.306;2023-07-13T00:51:16;101205.31;;;16.41;73.21
25238;BME280;13185;50.872;5.306;2023-07-13T00:53:43;101202.09;;;16.36;73.73
25238;BME280;13185;50.872;5.306;2023-07-13T00:56:09;101206.94;;;16.32;74.03
25238;BME280;13185;50.872;5.306;2023-07-13T00:58:36;101210.03;;;16.28;74.24
25238;BME280;13185;50.872;5.306;2023-07-13T01:01:03;101206.34;;;16.29;74.35
25238;BME280;13185;50.872;5.306;2023-07-13T01:03:28;101209.31;;;16.26;74.58
25238;BME280;13185;50.872;5.306;2023-07-13T01:05:54;101204.25;;;16.21;74.83
25238;BME280;13185;50.872;5.306;2023-07-13T01:08:21;101201.56;;;16.21;75.07
25238;BME280;13185;50.872;5.306;2023-07-13T01:10:54;101209.66;;;16.21;74.93
25238;BME280;13185;50.872;5.306;2023-07-13T01:13:20;101210.78;;;16.19;75.41
25238;BME280;13185;50.872;5.306;2023-07-13T01:15:47;101206.25;;;16.19;75.52
25238;BME280;13185;50.872;5.306;2023-07-13T01:18:20;101214.63;;;16.16;75.43
25238;BME280;13185;50.872;5.306;2023-07-13T01:20:54;101210.56;;;16.10;75.75
25238;BME280;13185;50.872;5.306;2023-07-13T01:23:20;101214.84;;;16.13;75.88
25238;BME280;13185;50.872;5.306;2023-07-13T01:25:47;101215.13;;;16.10;76.08
25238;BME280;13185;50.872;5.306;2023-07-13T01:28:13;101207.84;;;16.10;76.08
25238;BME280;13185;50.872;5.306;2023-07-13T01:30:40;101216.09;;;16.09;76.30
25238;BME280;13185;50.872;5.306;2023-07-13T01:33:07;101225.34;;;16.06;76.68
25238;BME280;13185;50.872;5.306;2023-07-13T01:35:33;101226.56;;;16.02;76.68
25238;BME280;13185;50.872;5.306;2023-07-13T01:37:59;101224.72;;;16.03;76.77
25238;BME280;13185;50.872;5.306;2023-07-13T01:40:26;101222.53;;;15.97;76.77
25238;BME280;13185;50.872;5.306;2023-07-13T01:42:52;101220.19;;;15.92;77.13
25238;BME280;13185;50.872;5.306;2023-07-13T01:45:19;101211.34;;;15.90;77.59
25238;BME280;13185;50.872;5.306;2023-07-13T01:47:46;101215.41;;;15.84;77.94
25238;BME280;13185;50.872;5.306;2023-07-13T01:50:12;101221.19;;;15.80;77.94
25238;BME280;13185;50.872;5.306;2023-07-13T01:52:37;101215.53;;;15.72;78.33
25238;BME280;13185;50.872;5.306;2023-07-13T01:55:03;101219.09;;;15.72;78.54
25238;BME280;13185;50.872;5.306;2023-07-13T01:57:28;101224.25;;;15.75;78.73
25238;BME280;13185;50.872;5.306;2023-07-13T01:59:54;101218.97;;;15.74;79.00
25238;BME280;13185;50.872;5.306;2023-07-13T02:02:20;101221.06;;;15.70;79.01
25238;BME280;13185;50.872;5.306;2023-07-13T02:04:46;101215.78;;;15.69;79.25
25238;BME280;13185;50.872;5.306;2023-07-13T02:07:11;101214.91;;;15.68;79.35
25238;BME280;13185;50.872;5.306;2023-07-13T02:09:37;101221.31;;;15.67;80.04
25238;BME280;13185;50.872;5.306;2023-07-13T02:12:03;101214.91;;;15.68;79.78
25238;BME280;13185;50.872;5.306;2023-07-13T02:14:32;101228.44;;;15.68;79.92
25238;BME280;13185;50.872;5.306;2023-07-13T02:16:58;101224.28;;;15.64;79.77
25238;BME280;13185;50.872;5.306;2023-07-13T02:19:23;101232.59;;;15.61;80.13
25238;BME280;13185;50.872;5.306;2023-07-13T02:21:49;101236.50;;;15.57;80.29
25238;BME280;13185;50.872;5.306;2023-07-13T02:24:16;101233.31;;;15.52;80.30
25238;BME280;13185;50.872;5.306;2023-07-13T02:26:45;101227.41;;;15.47;80.62
25238;BME280;13185;50.872;5.306;2023-07-13T02:29:11;101226.81;;;15.43;81.08
25238;BME280;13185;50.872;5.306;2023-07-13T02:31:36;101222.47;;;15.41;81.48
25238;BME280;13185;50.872;5.306;2023-07-13T02:34:02;101222.88;;;15.36;81.62
25238;BME280;13185;50.872;5.306;2023-07-13T02:36:28;101229.59;;;15.30;81.70
25238;BME280;13185;50.872;5.306;2023-07-13T02:38:53;101229.97;;;15.26;82.02
25238;BME280;13185;50.872;5.306;2023-07-13T02:41:19;101234.88;;;15.21;82.29
25238;BME280;13185;50.872;5.306;2023-07-13T02:43:45;101243.94;;;15.20;82.74
25238;BME280;13185;50.872;5.306;2023-07-13T02:46:10;101250.47;;;15.17;82.59
25238;BME280;13185;50.872;5.306;2023-07-13T02:48:38;101245.19;;;15.16;83.01
25238;BME280;13185;50.872;5.306;2023-07-13T02:51:04;101235.97;;;15.18;83.38
25238;BME280;13185;50.872;5.306;2023-07-13T02:53:29;101239.66;;;15.17;83.20
25238;BME280;13185;50.872;5.306;2023-07-13T02:55:55;101236.47;;;15.12;83.73
25238;BME280;13185;50.872;5.306;2023-07-13T02:58:21;101244.78;;;15.09;83.82
25238;BME280;13185;50.872;5.306;2023-07-13T03:00:47;101248.59;;;15.07;83.99
25238;BME280;13185;50.872;5.306;2023-07-13T03:03:14;101242.56;;;15.03;84.81
25238;BME280;13185;50.872;5.306;2023-07-13T03:05:43;101251.03;;;14.98;84.75
25238;BME280;13185;50.872;5.306;2023-07-13T03:08:11;101245.00;;;14.95;84.82
25238;BME280;13185;50.872;5.306;2023-07-13T03:10:38;101253.97;;;14.95;85.10
25238;BME280;13185;50.872;5.306;2023-07-13T03:13:07;101260.97;;;14.98;85.16
25238;BME280;13185;50.872;5.306;2023-07-13T03:15:33;101258.63;;;14.93;85.33
25238;BME280;13185;50.872;5.306;2023-07-13T03:17:58;101259.81;;;14.89;85.71
25238;BME280;13185;50.872;5.306;2023-07-13T03:20:24;101255.53;;;14.87;85.93
25238;BME280;13185;50.872;5.306;2023-07-13T03:22:50;101265.47;;;14.86;86.16
25238;BME280;13185;50.872;5.306;2023-07-13T03:25:16;101266.44;;;14.85;86.39
25238;BME280;13185;50.872;5.306;2023-07-13T03:27:42;101273.69;;;14.85;86.52
25238;BME280;13185;50.872;5.306;2023-07-13T03:30:09;101266.69;;;14.82;86.60
25238;BME280;13185;50.872;5.306;2023-07-13T03:32:35;101267.75;;;14.80;87.24
25238;BME280;13185;50.872;5.306;2023-07-13T03:35:00;101276.75;;;14.80;87.07
25238;BME280;13185;50.872;5.306;2023-07-13T03:37:29;101274.91;;;14.81;87.41
25238;BME280;13185;50.872;5.306;2023-07-13T03:39:54;101281.25;;;14.80;87.62
25238;BME280;13185;50.872;5.306;2023-07-13T03:42:20;101276.63;;;14.82;87.75
25238;BME280;13185;50.872;5.306;2023-07-13T03:44:45;101277.50;;;14.82;87.82
25238;BME280;13185;50.872;5.306;2023-07-13T03:47:17;101283.75;;;14.83;88.14
25238;BME280;13185;50.872;5.306;2023-07-13T03:49:44;101289.78;;;14.86;88.83
25238;BME280;13185;50.872;5.306;2023-07-13T03:52:11;101284.97;;;14.90;88.43
25238;BME280;13185;50.872;5.306;2023-07-13T03:54:37;101285.50;;;14.95;88.65
25238;BME280;13185;50.872;5.306;2023-07-13T03:57:02;101288.72;;;15.00;88.91
25238;BME280;13185;50.872;5.306;2023-07-13T03:59:30;101286.53;;;15.05;89.04
25238;BME280;13185;50.872;5.306;2023-07-13T04:01:56;101289.84;;;15.09;89.05
25238;BME280;13185;50.872;5.306;2023-07-13T04:04:21;101282.47;;;15.11;88.82
25238;BME280;13185;50.872;5.306;2023-07-13T04:06:47;101287.66;;;15.14;88.77
25238;BME280;13185;50.872;5.306;2023-07-13T04:09:12;101286.94;;;15.12;88.79
25238;BME280;13185;50.872;5.306;2023-07-13T04:11:38;101295.91;;;15.12;88.90
25238;BME280;13185;50.872;5.306;2023-07-13T04:14:05;101286.56;;;15.16;89.27
25238;BME280;13185;50.872;5.306;2023-07-13T04:16:32;101292.47;;;15.21;89.30
25238;BME280;13185;50.872;5.306;2023-07-13T04:18:58;101290.28;;;15.26;89.20
25238;BME280;13185;50.872;5.306;2023-07-13T04:21:28;101293.72;;;15.28;89.54
25238;BME280;13185;50.872;5.306;2023-07-13T04:23:53;101293.47;;;15.31;89.38
25238;BME280;13185;50.872;5.306;2023-07-13T04:26:19;101302.22;;;15.35;89.47
25238;BME280;13185;50.872;5.306;2023-07-13T04:28:47;101299.75;;;15.32;89.87
25238;BME280;13185;50.872;5.306;2023-07-13T04:31:13;101296.81;;;15.35;89.76
25238;BME280;13185;50.872;5.306;2023-07-13T04:33:38;101298.03;;;15.42;89.60
25238;BME280;13185;50.872;5.306;2023-07-13T04:36:04;101292.41;;;15.45;89.39
25238;BME280;13185;50.872;5.306;2023-07-13T04:38:32;101301.25;;;15.47;89.61
25238;BME280;13185;50.872;5.306;2023-07-13T04:41:02;101299.16;;;15.51;89.45
25238;BME280;13185;50.872;5.306;2023-07-13T04:43:28;101303.13;;;15.58;89.27
25238;BME280;13185;50.872;5.306;2023-07-13T04:45:54;101316.81;;;15.68;89.12
25238;BME280;13185;50.872;5.306;2023-07-13T04:48:20;101307.97;;;15.77;88.78
25238;BME280;13185;50.872;5.306;2023-07-13T04:50:46;101311.28;;;15.80;88.49
25238;BME280;13185;50.872;5.306;2023-07-13T04:53:12;101315.81;;;15.80;88.35
25238;BME280;13185;50.872;5.306;2023-07-13T04:55:38;101324.94;;;15.79;88.46
25238;BME280;13185;50.872;5.306;2023-07-13T04:58:03;101329.59;;;15.77;88.62
25238;BME280;13185;50.872;5.306;2023-07-13T05:00:30;101328.50;;;15.79;88.72
25238;BME280;13185;50.872;5.306;2023-07-13T05:02:56;101334.41;;;15.84;88.44
25238;BME280;13185;50.872;5.306;2023-07-13T05:05:25;101338.97;;;15.84;88.54
25238;BME280;13185;50.872;5.306;2023-07-13T05:07:52;101333.66;;;15.82;88.62
25238;BME280;13185;50.872;5.306;2023-07-13T05:10:18;101336.47;;;15.81;88.90
25238;BME280;13185;50.872;5.306;2023-07-13T05:12:43;101332.66;;;15.83;88.69
25238;BME280;13185;50.872;5.306;2023-07-13T05:15:10;101334.88;;;15.90;88.48
25238;BME280;13185;50.872;5.306;2023-07-13T05:17:35;101337.47;;;15.91;88.61
25238;BME280;13185;50.872;5.306;2023-07-13T05:20:01;101336.34;;;15.94;88.81
25238;BME280;13185;50.872;5.306;2023-07-13T05:22:27;101332.56;;;15.96;88.98
25238;BME280;13185;50.872;5.306;2023-07-13T05:24:52;101333.78;;;16.03;88.88
25238;BME280;13185;50.872;5.306;2023-07-13T05:27:17;101336.88;;;16.10;88.90
25238;BME280;13185;50.872;5.306;2023-07-13T05:29:43;101339.31;;;16.13;88.76
25238;BME280;13185;50.872;5.306;2023-07-13T05:32:09;101338.09;;;16.17;88.85
25238;BME280;13185;50.872;5.306;2023-07-13T05:34:35;101334.41;;;16.18;89.07
25238;BME280;13185;50.872;5.306;2023-07-13T05:37:00;101339.69;;;16.20;89.06
25238;BME280;13185;50.872;5.306;2023-07-13T05:39:26;101342.28;;;16.21;89.16
25238;BME280;13185;50.872;5.306;2023-07-13T05:41:52;101345.47;;;16.26;88.94
25238;BME280;13185;50.872;5.306;2023-07-13T05:44:18;101340.28;;;16.34;88.89
25238;BME280;13185;50.872;5.306;2023-07-13T05:46:44;101332.66;;;16.39;88.85
25238;BME280;13185;50.872;5.306;2023-07-13T05:49:10;101335.97;;;16.43;88.51
25238;BME280;13185;50.872;5.306;2023-07-13T05:51:36;101343.59;;;16.49;88.67
25238;BME280;13185;50.872;5.306;2023-07-13T05:54:01;101346.44;;;16.48;88.72
25238;BME280;13185;50.872;5.306;2023-07-13T05:56:27;101343.59;;;16.49;88.70
25238;BME280;13185;50.872;5.306;2023-07-13T05:58:53;101345.66;;;16.57;88.67
25238;BME280;13185;50.872;5.306;2023-07-13T06:01:18;101336.44;;;16.59;88.28
25238;BME280;13185;50.872;5.306;2023-07-13T06:03:46;101344.81;;;16.67;88.48
25238;BME280;13185;50.872;5.306;2023-07-13T06:06:12;101353.81;;;16.68;88.29
25238;BME280;13185;50.872;5.306;2023-07-13T06:08:38;101350.44;;;16.76;88.11
25238;BME280;13185;50.872;5.306;2023-07-13T06:11:17;101355.97;;;16.85;87.78
25238;BME280;13185;50.872;5.306;2023-07-13T06:13:43;101353.13;;;16.87;87.70
25238;BME280;13185;50.872;5.306;2023-07-13T06:16:11;101355.34;;;16.93;87.96
25238;BME280;13185;50.872;5.306;2023-07-13T06:18:37;101363.69;;;17.01;87.56
25238;BME280;13185;50.872;5.306;2023-07-13T06:21:08;101360.44;;;17.07;87.01
25238;BME280;13185;50.872;5.306;2023-07-13T06:23:33;101360.31;;;17.09;86.78
25238;BME280;13185;50.872;5.306;2023-07-13T06:25:59;101356.09;;;17.16;86.36
25238;BME280;13185;50.872;5.306;2023-07-13T06:28:24;101360.88;;;17.23;86.25
25238;BME280;13185;50.872;5.306;2023-07-13T06:30:50;101369.59;;;17.27;86.12
25238;BME280;13185;50.872;5.306;2023-07-13T06:33:15;101373.66;;;17.33;85.73
25238;BME280;13185;50.872;5.306;2023-07-13T06:35:42;101372.25;;;17.38;85.60
25238;BME280;13185;50.872;5.306;2023-07-13T06:38:07;101371.41;;;17.38;85.17
25238;BME280;13185;50.872;5.306;2023-07-13T06:40:33;101371.03;;;17.42;85.38
25238;BME280;13185;50.872;5.306;2023-07-13T06:42:58;101375.75;;;17.50;85.28
25238;BME280;13185;50.872;5.306;2023-07-13T06:45:24;101376.84;;;17.58;85.20
25238;BME280;13185;50.872;5.306;2023-07-13T06:47:49;101381.75;;;17.65;84.76
25238;BME280;13185;50.872;5.306;2023-07-13T06:50:15;101378.91;;;17.66;84.69
25238;BME280;13185;50.872;5.306;2023-07-13T06:52:40;101379.88;;;17.65;84.31
25238;BME280;13185;50.872;5.306;2023-07-13T06:55:06;101380.63;;;17.67;84.18
25238;BME280;13185;50.872;5.306;2023-07-13T06:57:32;101393.19;;;17.68;84.01
25238;BME280;13185;50.872;5.306;2023-07-13T06:59:57;101381.38;;;17.69;83.35
25238;BME280;13185;50.872;5.306;2023-07-13T07:02:23;101388.63;;;17.69;83.73
25238;BME280;13185;50.872;5.306;2023-07-13T07:04:48;101386.28;;;17.75;83.39
25238;BME280;13185;50.872;5.306;2023-07-13T07:07:15;101392.16;;;17.80;83.34
25238;BME280;13185;50.872;5.306;2023-07-13T07:09:40;101396.34;;;17.84;83.13
25238;BME280;13185;50.872;5.306;2023-07-13T07:12:06;101390.50;;;17.89;82.78
25238;BME280;13185;50.872;5.306;2023-07-13T07:14:32;101408.25;;;17.93;82.67
25238;BME280;13185;50.872;5.306;2023-07-13T07:16:59;101404.25;;;17.97;82.58
25238;BME280;13185;50.872;5.306;2023-07-13T07:19:25;101396.88;;;18.09;82.38
25238;BME280;13185;50.872;5.306;2023-07-13T07:21:50;101400.06;;;18.14;82.07
25238;BME280;13185;50.872;5.306;2023-07-13T07:24:16;101396.41;;;18.25;82.12
25238;BME280;13185;50.872;5.306;2023-07-13T07:26:41;101394.84;;;18.32;81.71
25238;BME280;13185;50.872;5.306;2023-07-13T07:29:07;101386.03;;;18.39;81.20
25238;BME280;13185;50.872;5.306;2023-07-13T07:31:33;101393.47;;;18.37;80.71
25238;BME280;13185;50.872;5.306;2023-07-13T07:33:58;101399.94;;;18.46;80.50
25238;BME280;13185;50.872;5.306;2023-07-13T07:36:24;101400.50;;;18.50;79.99
25238;BME280;13185;50.872;5.306;2023-07-13T07:38:49;101400.94;;;18.45;80.27
25238;BME280;13185;50.872;5.306;2023-07-13T07:41:15;101402.50;;;18.48;80.44
25238;BME280;13185;50.872;5.306;2023-07-13T07:43:40;101410.22;;;18.52;80.07
25238;BME280;13185;50.872;5.306;2023-07-13T07:46:06;101407.50;;;18.52;79.49
25238;BME280;13185;50.872;5.306;2023-07-13T07:48:32;101408.81;;;18.58;80.09
25238;BME280;13185;50.872;5.306;2023-07-13T07:50:58;101406.75;;;18.71;79.76
25238;BME280;13185;50.872;5.306;2023-07-13T07:53:24;101414.06;;;18.80;79.23
25238;BME280;13185;50.872;5.306;2023-07-13T07:55:49;101410.06;;;18.84;79.06
25238;BME280;13185;50.872;5.306;2023-07-13T07:58:16;101410.38;;;18.91;78.60
25238;BME280;13185;50.872;5.306;2023-07-13T08:00:41;101405.09;;;18.89;78.61
25238;BME280;13185;50.872;5.306;2023-07-13T08:03:07;101408.81;;;18.98;78.61
25238;BME280;13185;50.872;5.306;2023-07-13T08:05:35;101411.41;;;19.09;78.40
25238;BME280;13185;50.872;5.306;2023-07-13T08:08:01;101410.00;;;19.24;77.47
25238;BME280;13185;50.872;5.306;2023-07-13T08:10:26;101404.56;;;19.34;76.51
25238;BME280;13185;50.872;5.306;2023-07-13T08:12:52;101414.13;;;19.38;76.64
25238;BME280;13185;50.872;5.306;2023-07-13T08:15:18;101405.84;;;19.49;76.25
25238;BME280;13185;50.872;5.306;2023-07-13T08:17:47;101408.31;;;19.62;75.88
25238;BME280;13185;50.872;5.306;2023-07-13T08:20:12;101400.84;;;19.74;75.25
25238;BME280;13185;50.872;5.306;2023-07-13T08:22:38;101402.53;;;19.84;74.72
25238;BME280;13185;50.872;5.306;2023-07-13T08:25:04;101404.13;;;19.77;73.93
25238;BME280;13185;50.872;5.306;2023-07-13T08:27:31;101404.28;;;19.76;74.03
25238;BME280;13185;50.872;5.306;2023-07-13T08:29:57;101402.69;;;19.83;74.80
25238;BME280;13185;50.872;5.306;2023-07-13T08:32:23;101399.09;;;19.92;73.99
25238;BME280;13185;50.872;5.306;2023-07-13T08:34:49;101400.34;;;19.98;73.56
25238;BME280;13185;50.872;5.306;2023-07-13T08:37:16;101408.50;;;20.07;73.29
25238;BME280;13185;50.872;5.306;2023-07-13T08:39:42;101407.94;;;20.04;73.10
25238;BME280;13185;50.872;5.306;2023-07-13T08:44:50;101407.75;;;20.25;72.24
25238;BME280;13185;50.872;5.306;2023-07-13T08:47:21;101402.41;;;20.33;71.53
25238;BME280;13185;50.872;5.306;2023-07-13T08:49:48;101409.56;;;20.43;71.58
25238;BME280;13185;50.872;5.306;2023-07-13T08:52:30;101408.78;;;20.51;71.60
25238;BME280;13185;50.872;5.306;2023-07-13T08:54:58;101404.19;;;20.52;71.13
25238;BME280;13185;50.872;5.306;2023-07-13T08:57:32;101403.66;;;20.48;70.79
25238;BME280;13185;50.872;5.306;2023-07-13T08:59:59;101409.81;;;20.50;71.63
25238;BME280;13185;50.872;5.306;2023-07-13T09:05:24;101411.44;;;20.33;71.26
25238;BME280;13185;50.872;5.306;2023-07-13T09:10:44;101418.09;;;20.58;70.57
25238;BME280;13185;50.872;5.306;2023-07-13T09:13:49;101403.28;;;20.61;70.40
25238;BME280;13185;50.872;5.306;2023-07-13T09:16:20;101404.16;;;20.89;70.10
25238;BME280;13185;50.872;5.306;2023-07-13T09:18:51;101406.19;;;21.04;69.35
25238;BME280;13185;50.872;5.306;2023-07-13T09:21:23;101407.84;;;21.15;69.59
25238;BME280;13185;50.872;5.306;2023-07-13T09:23:53;101414.06;;;21.25;68.40
25238;BME280;13185;50.872;5.306;2023-07-13T09:26:21;101405.84;;;21.17;67.80
25238;BME280;13185;50.872;5.306;2023-07-13T09:28:51;101409.56;;;21.16;67.74
25238;BME280;13185;50.872;5.306;2023-07-13T09:34:18;101402.69;;;21.12;67.09
25238;BME280;13185;50.872;5.306;2023-07-13T09:36:44;101407.84;;;20.97;66.91
25238;BME280;13185;50.872;5.306;2023-07-13T09:42:36;101404.25;;;21.15;67.52
25238;BME280;13185;50.872;5.306;2023-07-13T09:44:38;101424.25;;;21.33;66.48
25238;BME280;13185;50.872;5.306;2023-07-13T09:47:19;101411.81;;;21.21;64.89
25238;BME280;13185;50.872;5.306;2023-07-13T09:49:47;101419.06;;;21.12;65.14
25238;BME280;13185;50.872;5.306;2023-07-13T09:52:18;101420.94;;;21.12;64.81
25238;BME280;13185;50.872;5.306;2023-07-13T09:54:45;101424.03;;;21.26;65.46
25238;BME280;13185;50.872;5.306;2023-07-13T09:57:18;101426.59;;;21.46;64.67
25238;BME280;13185;50.872;5.306;2023-07-13T09:59:47;101424.78;;;21.54;63.90
25238;BME280;13185;50.872;5.306;2023-07-13T10:02:33;101425.09;;;21.69;62.69
25238;BME280;13185;50.872;5.306;2023-07-13T10:05:10;101423.13;;;21.79;62.95
25238;BME280;13185;50.872;5.306;2023-07-13T10:07:43;101428.81;;;21.86;62.37
25238;BME280;13185;50.872;5.306;2023-07-13T10:10:17;101432.72;;;21.83;61.99
25238;BME280;13185;50.872;5.306;2023-07-13T10:12:43;101429.38;;;21.72;61.86
25238;BME280;13185;50.872;5.306;2023-07-13T10:15:18;101429.75;;;21.77;62.42
25238;BME280;13185;50.872;5.306;2023-07-13T10:17:44;101429.28;;;21.81;62.23
25238;BME280;13185;50.872;5.306;2023-07-13T10:20:10;101429.66;;;21.86;61.14
25238;BME280;13185;50.872;5.306;2023-07-13T10:23:02;101424.59;;;22.09;62.53
25238;BME280;13185;50.872;5.306;2023-07-13T10:25:34;101420.63;;;22.38;61.73
25238;BME280;13185;50.872;5.306;2023-07-13T10:28:09;101422.09;;;22.58;61.61
25238;BME280;13185;50.872;5.306;2023-07-13T10:30:40;101431.38;;;22.65;59.68
25238;BME280;13185;50.872;5.306;2023-07-13T10:33:11;101421.81;;;22.69;59.41
25238;BME280;13185;50.872;5.306;2023-07-13T10:35:39;101425.09;;;22.73;58.60
25238;BME280;13185;50.872;5.306;2023-07-13T10:38:11;101427.25;;;22.61;58.13
25238;BME280;13185;50.872;5.306;2023-07-13T10:40:40;101430.00;;;22.69;59.16
25238;BME280;13185;50.872;5.306;2023-07-13T10:43:15;101437.19;;;22.70;58.20
25238;BME280;13185;50.872;5.306;2023-07-13T10:45:45;101425.00;;;22.57;57.77
25238;BME280;13185;50.872;5.306;2023-07-13T10:48:14;101429.56;;;22.48;58.39
25238;BME280;13185;50.872;5.306;2023-07-13T10:50:42;101436.06;;;22.47;59.07
25238;BME280;13185;50.872;5.306;2023-07-13T10:53:32;101433.00;;;22.50;57.71
25238;BME280;13185;50.872;5.306;2023-07-13T10:56:03;101438.56;;;22.40;58.02
25238;BME280;13185;50.872;5.306;2023-07-13T10:58:40;101438.22;;;22.35;58.11
25238;BME280;13185;50.872;5.306;2023-07-13T11:03:49;101438.16;;;22.01;59.07
25238;BME280;13185;50.872;5.306;2023-07-13T11:06:37;101447.28;;;22.10;60.70
25238;BME280;13185;50.872;5.306;2023-07-13T11:12:06;101436.81;;;22.05;58.86
25238;BME280;13185;50.872;5.306;2023-07-13T11:15:06;101436.38;;;21.92;59.69
25238;BME280;13185;50.872;5.306;2023-07-13T11:17:48;101437.69;;;21.88;59.39
25238;BME280;13185;50.872;5.306;2023-07-13T11:22:46;101444.59;;;21.74;60.28
25238;BME280;13185;50.872;5.306;2023-07-13T11:40:54;101432.69;;;22.53;57.39
25238;BME280;13185;50.872;5.306;2023-07-13T11:43:21;101428.78;;;22.56;56.24
25238;BME280;13185;50.872;5.306;2023-07-13T11:45:51;101424.31;;;22.55;54.71
25238;BME280;13185;50.872;5.306;2023-07-13T11:48:29;101429.22;;;22.43;54.44
25238;BME280;13185;50.872;5.306;2023-07-13T11:51:03;101436.28;;;22.54;54.33
25238;BME280;13185;50.872;5.306;2023-07-13T11:53:46;101427.78;;;22.65;54.90
25238;BME280;13185;50.872;5.306;2023-07-13T11:56:12;101423.38;;;22.80;53.29
25238;BME280;13185;50.872;5.306;2023-07-13T11:58:39;101422.63;;;22.96;52.55
25238;BME280;13185;50.872;5.306;2023-07-13T12:01:04;101423.31;;;22.98;52.77
25238;BME280;13185;50.872;5.306;2023-07-13T12:03:32;101428.44;;;22.93;52.82
25238;BME280;13185;50.872;5.306;2023-07-13T12:06:04;101425.19;;;22.97;52.64
25238;BME280;13185;50.872;5.306;2023-07-13T12:08:38;101423.06;;;23.25;53.56
25238;BME280;13185;50.872;5.306;2023-07-13T12:11:15;101427.34;;;23.28;51.97
25238;BME280;13185;50.872;5.306;2023-07-13T12:13:41;101427.66;;;23.17;50.01
25238;BME280;13185;50.872;5.306;2023-07-13T12:16:16;101429.38;;;23.34;49.71
25238;BME280;13185;50.872;5.306;2023-07-13T12:18:43;101424.09;;;23.49;49.13
25238;BME280;13185;50.872;5.306;2023-07-13T12:21:17;101425.50;;;23.61;47.97
25238;BME280;13185;50.872;5.306;2023-07-13T12:23:44;101425.00;;;23.74;48.86
25238;BME280;13185;50.872;5.306;2023-07-13T12:26:13;101428.75;;;23.97;48.48
25238;BME280;13185;50.872;5.306;2023-07-13T12:28:51;101412.81;;;23.84;48.33
25238;BME280;13185;50.872;5.306;2023-07-13T12:33:58;101415.38;;;24.10;48.43
25238;BME280;13185;50.872;5.306;2023-07-13T12:36:24;101418.28;;;24.09;48.13
25238;BME280;13185;50.872;5.306;2023-07-13T12:38:50;101420.00;;;24.10;47.65
25238;BME280;13185;50.872;5.306;2023-07-13T12:41:16;101419.09;;;24.26;46.35
25238;BME280;13185;50.872;5.306;2023-07-13T12:43:45;101425.41;;;24.51;45.97
25238;BME280;13185;50.872;5.306;2023-07-13T12:46:23;101424.44;;;24.74;45.56
25238;BME280;13185;50.872;5.306;2023-07-13T12:48:51;101427.13;;;24.91;45.58
25238;BME280;13185;50.872;5.306;2023-07-13T12:51:22;101420.63;;;25.23;45.23
25238;BME280;13185;50.872;5.306;2023-07-13T12:53:55;101414.63;;;25.19;43.71
25238;BME280;13185;50.872;5.306;2023-07-13T12:56:23;101424.31;;;25.07;43.98
25238;BME280;13185;50.872;5.306;2023-07-13T12:58:57;101417.38;;;24.80;43.50
25238;BME280;13185;50.872;5.306;2023-07-13T13:01:28;101425.50;;;24.65;44.60
25238;BME280;13185;50.872;5.306;2023-07-13T13:03:54;101427.63;;;24.55;45.47
25238;BME280;13185;50.872;5.306;2023-07-13T13:06:28;101427.34;;;24.34;45.12
25238;BME280;13185;50.872;5.306;2023-07-13T13:08:57;101428.88;;;24.20;45.81
25238;BME280;13185;50.872;5.306;2023-07-13T13:11:28;101426.84;;;24.14;46.13
25238;BME280;13185;50.872;5.306;2023-07-13T13:13:54;101433.69;;;24.10;46.35
25238;BME280;13185;50.872;5.306;2023-07-13T13:18:53;101437.31;;;23.86;46.92
25238;BME280;13185;50.872;5.306;2023-07-13T13:21:20;101430.16;;;23.77;46.80
25238;BME280;13185;50.872;5.306;2023-07-13T13:23:45;101433.19;;;23.57;46.83
25238;BME280;13185;50.872;5.306;2023-07-13T13:26:13;101444.81;;;23.51;46.85
25238;BME280;13185;50.872;5.306;2023-07-13T13:28:41;101441.38;;;23.49;47.31
25238;BME280;13185;50.872;5.306;2023-07-13T13:31:08;101446.50;;;23.36;47.68
25238;BME280;13185;50.872;5.306;2023-07-13T13:33:38;101441.88;;;23.28;48.00
25238;BME280;13185;50.872;5.306;2023-07-13T13:36:20;101474.69;;;23.20;48.61
25238;BME280;13185;50.872;5.306;2023-07-13T13:38:48;101457.81;;;22.91;52.76